createdAt,value
2017-09-26T00:02:14.811Z,12.53
2017-09-26T00:04:41.228Z,10.23
2017-09-26T00:07:07.684Z,10.80
2017-09-26T00:09:34.179Z,11.27
2017-09-26T00:12:01.331Z,10.07
2017-09-26T00:14:28.708Z,11.83
2017-09-26T00:16:55.104Z,10.60
2017-09-26T00:19:21.508Z,10.00
2017-09-26T00:21:47.957Z,9.80
2017-09-26T00:24:14.361Z,11.97
2017-09-26T00:26:40.893Z,9.90
2017-09-26T00:29:07.388Z,11.50
2017-09-26T00:31:34.552Z,9.37
2017-09-26T00:34:01.136Z,10.33
2017-09-26T00:36:27.623Z,10.10
2017-09-26T00:38:54.069Z,9.50
2017-09-26T00:41:20.559Z,9.67
2017-09-26T00:43:46.981Z,9.47
2017-09-26T00:46:13.431Z,10.13
2017-09-26T00:48:39.840Z,9.77
2017-09-26T00:51:06.330Z,9.07
2017-09-26T00:53:32.755Z,9.80
2017-09-26T00:55:59.912Z,10.53
2017-09-26T00:58:26.371Z,8.90
2017-09-26T01:00:52.811Z,9.83
2017-09-26T01:03:20.323Z,8.57
2017-09-26T01:08:49.455Z,9.03
2017-09-26T01:11:16.623Z,9.90
2017-09-26T01:13:43.038Z,9.63
2017-09-26T01:16:09.455Z,9.10
2017-09-26T01:18:36.612Z,9.70
2017-09-26T01:21:03.864Z,8.47
2017-09-26T01:23:31.023Z,8.77
2017-09-26T01:25:57.428Z,9.97
2017-09-26T01:28:23.867Z,10.50
2017-09-26T01:30:51.036Z,9.90
2017-09-26T01:33:17.460Z,9.63
2017-09-26T01:35:44.599Z,9.93
2017-09-26T01:38:11.743Z,9.90
2017-09-26T01:40:44.973Z,9.93
2017-09-26T01:43:11.522Z,10.90
2017-09-26T01:45:37.926Z,9.40
2017-09-26T01:48:05.075Z,10.20
2017-09-26T01:50:31.555Z,9.53
2017-09-26T01:52:58.001Z,10.20
2017-09-26T01:55:24.534Z,9.90
2017-09-26T01:57:51.968Z,9.43
2017-09-26T02:00:18.432Z,9.67
2017-09-26T02:02:44.835Z,9.60
2017-09-26T02:05:11.274Z,10.13
2017-09-26T02:07:38.640Z,9.30
2017-09-26T02:10:05.080Z,8.90
2017-09-26T02:12:31.523Z,9.40
2017-09-26T02:14:57.911Z,9.00
2017-09-26T02:17:24.348Z,9.83
2017-09-26T02:19:50.812Z,9.10
2017-09-26T02:22:17.289Z,8.63
2017-09-26T02:24:43.690Z,9.27
2017-09-26T02:27:10.080Z,9.37
2017-09-26T02:29:36.619Z,10.00
2017-09-26T02:32:03.015Z,10.13
2017-09-26T02:34:30.155Z,10.80
2017-09-26T02:36:57.338Z,11.33
2017-09-26T02:39:23.746Z,9.43
2017-09-26T02:41:50.224Z,10.10
2017-09-26T02:44:16.627Z,10.70
2017-09-26T02:46:43.056Z,11.10
2017-09-26T02:49:09.455Z,10.77
2017-09-26T02:51:35.879Z,9.13
2017-09-26T02:54:02.301Z,10.23
2017-09-26T02:56:28.841Z,11.10
2017-09-26T02:58:55.240Z,9.97
2017-09-26T03:01:27.042Z,12.13
2017-09-26T03:03:56.432Z,11.60
2017-09-26T03:06:22.811Z,11.20
2017-09-26T03:08:50.055Z,10.20
2017-09-26T03:11:17.207Z,11.80
2017-09-26T03:13:44.320Z,10.53
2017-09-26T03:16:10.750Z,10.80
2017-09-26T03:18:37.143Z,9.63
2017-09-26T03:21:03.591Z,9.60
2017-09-26T03:23:29.995Z,10.53
2017-09-26T03:25:56.450Z,10.27
2017-09-26T03:28:22.910Z,9.50
2017-09-26T03:30:49.368Z,9.07
2017-09-26T03:33:15.760Z,9.33
2017-09-26T03:35:42.228Z,10.10
2017-09-26T03:38:08.664Z,10.50
2017-09-26T03:40:35.191Z,10.90
2017-09-26T03:43:01.615Z,10.77
2017-09-26T03:45:28.032Z,10.00
2017-09-26T03:47:54.481Z,8.70
2017-09-26T03:50:20.912Z,11.03
2017-09-26T03:52:47.328Z,10.77
2017-09-26T03:55:13.748Z,10.23
2017-09-26T03:57:40.191Z,10.37
2017-09-26T04:00:06.676Z,10.90
2017-09-26T04:02:34.011Z,9.97
2017-09-26T04:05:00.425Z,11.77
2017-09-26T04:07:26.855Z,10.90
2017-09-26T04:09:53.324Z,9.90
2017-09-26T04:12:19.770Z,10.03
2017-09-26T04:14:47.063Z,9.37
2017-09-26T04:17:13.461Z,9.53
2017-09-26T04:19:40.639Z,9.53
2017-09-26T04:22:07.076Z,10.07
2017-09-26T04:24:33.504Z,10.10
2017-09-26T04:26:59.954Z,8.80
2017-09-26T04:29:26.359Z,9.97
2017-09-26T04:31:52.784Z,10.03
2017-09-26T04:34:19.371Z,8.40
2017-09-26T04:36:45.765Z,10.20
2017-09-26T04:39:12.204Z,8.90
2017-09-26T04:41:38.639Z,8.87
2017-09-26T04:44:05.072Z,8.50
2017-09-26T04:46:31.519Z,8.80
2017-09-26T04:48:57.963Z,9.20
2017-09-26T04:51:24.398Z,9.70
2017-09-26T04:53:51.095Z,9.67
2017-09-26T04:56:17.515Z,8.13
2017-09-26T04:58:44.646Z,9.60
2017-09-26T05:01:11.099Z,10.07
2017-09-26T05:03:38.252Z,10.00
2017-09-26T05:06:05.415Z,9.77
2017-09-26T05:08:31.832Z,8.70
2017-09-26T05:10:58.988Z,9.00
2017-09-26T05:13:25.388Z,8.90
2017-09-26T05:15:51.975Z,9.10
2017-09-26T05:18:18.436Z,9.47
2017-09-26T05:20:44.842Z,9.40
2017-09-26T05:23:11.309Z,10.07
2017-09-26T05:25:37.711Z,8.60
2017-09-26T05:28:04.158Z,9.50
2017-09-26T05:30:30.547Z,8.63
2017-09-26T05:32:57.723Z,10.70
2017-09-26T05:35:24.147Z,9.70
2017-09-26T05:37:50.536Z,9.17
2017-09-26T05:40:16.967Z,10.33
2017-09-26T05:42:43.399Z,10.47
2017-09-26T05:45:09.833Z,9.53
2017-09-26T05:47:36.511Z,10.60
2017-09-26T05:50:02.924Z,9.37
2017-09-26T05:52:30.066Z,8.83
2017-09-26T05:54:57.221Z,9.50
2017-09-26T05:57:24.391Z,8.87
2017-09-26T05:59:50.798Z,10.27
2017-09-26T06:02:17.991Z,10.97
2017-09-26T06:04:44.395Z,9.63
2017-09-26T06:07:11.544Z,10.17
2017-09-26T06:09:38.739Z,12.00
2017-09-26T06:12:05.167Z,12.13
2017-09-26T06:14:31.643Z,11.13
2017-09-26T06:16:58.040Z,10.80
2017-09-26T06:19:24.476Z,10.70
2017-09-26T06:21:51.788Z,10.73
2017-09-26T06:24:18.247Z,10.73
2017-09-26T06:26:44.707Z,11.40
2017-09-26T06:29:11.147Z,11.93
2017-09-26T06:31:37.763Z,10.43
2017-09-26T06:34:04.206Z,11.40
2017-09-26T06:36:30.602Z,10.27
2017-09-26T06:38:57.015Z,11.73
2017-09-26T06:41:24.191Z,13.33
2017-09-26T06:43:50.608Z,10.80
2017-09-26T06:46:17.799Z,12.70
2017-09-26T06:48:44.236Z,10.60
2017-09-26T06:51:10.696Z,13.10
2017-09-26T06:53:37.126Z,12.97
2017-09-26T06:56:03.523Z,12.30
2017-09-26T06:58:29.972Z,12.70
2017-09-26T07:00:56.392Z,12.13
2017-09-26T07:03:22.811Z,11.80
2017-09-26T07:05:49.248Z,12.50
2017-09-26T07:08:15.666Z,13.70
2017-09-26T07:10:42.106Z,9.97
2017-09-26T07:13:08.520Z,11.37
2017-09-26T07:15:35.702Z,11.80
2017-09-26T07:18:02.147Z,11.33
2017-09-26T07:20:28.587Z,10.97
2017-09-26T07:22:55.091Z,12.23
2017-09-26T07:25:21.535Z,11.33
2017-09-26T07:27:47.975Z,10.40
2017-09-26T07:30:14.392Z,13.97
2017-09-26T07:32:40.784Z,10.07
2017-09-26T07:35:07.283Z,12.10
2017-09-26T07:37:33.723Z,10.90
2017-09-26T07:40:00.138Z,11.40
2017-09-26T07:42:26.546Z,11.80
2017-09-26T07:44:52.962Z,12.57
2017-09-26T07:47:20.130Z,11.17
2017-09-26T07:49:47.376Z,11.87
2017-09-26T07:52:14.531Z,13.37
2017-09-26T07:54:40.923Z,12.83
2017-09-26T07:57:07.348Z,11.40
2017-09-26T07:59:33.743Z,11.40
2017-09-26T08:02:00.756Z,10.10
2017-09-26T08:04:28.474Z,11.90
2017-09-26T08:06:55.459Z,11.37
2017-09-26T08:09:23.197Z,11.10
2017-09-26T08:11:49.636Z,13.73
2017-09-26T08:14:16.067Z,11.23
2017-09-26T08:16:42.456Z,11.00
2017-09-26T08:19:08.880Z,11.17
2017-09-26T08:21:35.338Z,10.83
2017-09-26T08:24:01.741Z,12.77
2017-09-26T08:26:28.175Z,11.70
2017-09-26T08:28:54.604Z,12.50
2017-09-26T08:31:20.999Z,12.77
2017-09-26T08:33:47.376Z,13.00
2017-09-26T08:36:13.919Z,13.17
2017-09-26T08:38:40.307Z,12.97
2017-09-26T08:41:06.721Z,12.23
2017-09-26T08:43:33.164Z,13.77
2017-09-26T08:45:59.555Z,13.10
2017-09-26T08:48:25.987Z,11.90
2017-09-26T08:50:52.401Z,13.77
2017-09-26T08:53:18.803Z,12.10
2017-09-26T08:55:45.243Z,12.23
2017-09-26T08:58:11.652Z,12.87
2017-09-26T09:00:38.051Z,13.10
2017-09-26T09:03:04.516Z,12.90
2017-09-26T09:05:31.692Z,13.40
2017-09-26T09:07:58.087Z,11.57
2017-09-26T09:10:24.525Z,13.20
2017-09-26T09:12:50.932Z,11.83
2017-09-26T09:15:17.325Z,12.17
2017-09-26T09:17:44.499Z,12.60
2017-09-26T09:20:10.905Z,11.67
2017-09-26T09:22:38.040Z,11.90
2017-09-26T09:25:04.467Z,11.20
2017-09-26T09:27:30.863Z,11.93
2017-09-26T09:29:57.315Z,12.57
2017-09-26T09:32:23.748Z,12.27
2017-09-26T09:34:50.232Z,12.40
2017-09-26T09:37:17.371Z,11.97
2017-09-26T09:39:44.507Z,11.20
2017-09-26T09:42:10.910Z,12.63
2017-09-26T09:44:37.335Z,10.83
2017-09-26T09:47:03.860Z,11.67
2017-09-26T09:49:30.268Z,14.20
2017-09-26T09:51:57.407Z,11.17
2017-09-26T09:54:24.651Z,12.10
2017-09-26T09:56:51.064Z,12.47
2017-09-26T09:59:17.440Z,11.67
2017-09-26T10:01:43.859Z,11.53
2017-09-26T10:04:11.019Z,12.70
2017-09-26T10:06:37.414Z,12.13
2017-09-26T10:09:03.927Z,12.33
2017-09-26T10:11:30.332Z,14.30
2017-09-26T10:13:56.743Z,12.77
2017-09-26T10:16:24.015Z,11.90
2017-09-26T10:18:50.433Z,13.07
2017-09-26T10:21:17.600Z,12.97
2017-09-26T10:23:44.276Z,12.90
2017-09-26T10:26:10.669Z,12.97
2017-09-26T10:28:37.056Z,13.63
2017-09-26T10:31:03.495Z,12.23
2017-09-26T10:33:29.908Z,14.20
2017-09-26T10:35:56.331Z,12.63
2017-09-26T10:38:22.720Z,13.40
2017-09-26T10:40:49.995Z,10.90
2017-09-26T10:43:16.388Z,12.00
2017-09-26T10:45:42.773Z,13.70
2017-09-26T10:48:10.919Z,13.90
2017-09-26T10:50:37.336Z,12.37
2017-09-26T10:53:04.462Z,12.80
2017-09-26T10:55:30.887Z,14.13
2017-09-26T10:57:57.312Z,13.07
2017-09-26T11:00:23.727Z,12.10
2017-09-26T11:02:50.188Z,14.60
2017-09-26T11:05:16.591Z,13.33
2017-09-26T11:07:43.115Z,15.00
2017-09-26T11:10:09.520Z,13.73
2017-09-26T11:12:37.201Z,12.63
2017-09-26T11:15:03.626Z,12.93
2017-09-26T11:17:30.060Z,11.23
2017-09-26T11:19:56.520Z,12.40
2017-09-26T11:22:22.908Z,12.80
2017-09-26T11:24:50.100Z,13.20
2017-09-26T11:27:16.532Z,13.00
2017-09-26T11:29:42.932Z,14.70
2017-09-26T11:32:10.140Z,13.30
2017-09-26T11:34:36.864Z,13.60
2017-09-26T11:37:04.104Z,14.10
2017-09-26T11:39:30.484Z,14.13
2017-09-26T11:41:56.911Z,12.57
2017-09-26T11:44:23.330Z,12.40
2017-09-26T11:46:49.770Z,11.67
2017-09-26T11:49:16.939Z,12.17
2017-09-26T11:51:43.331Z,13.33
2017-09-26T11:54:09.758Z,13.20
2017-09-26T11:56:36.169Z,14.10
2017-09-26T11:59:02.575Z,15.03
2017-09-26T12:01:29.863Z,14.60
2017-09-26T12:03:56.271Z,14.87
2017-09-26T12:06:22.675Z,12.47
2017-09-26T12:08:50.027Z,12.93
2017-09-26T12:11:16.410Z,13.17
2017-09-26T12:13:48.796Z,13.07
2017-09-26T12:16:15.379Z,12.30
2017-09-26T12:18:42.003Z,12.50
2017-09-26T12:21:08.460Z,12.50
2017-09-26T12:23:35.612Z,12.77
2017-09-26T12:26:02.172Z,14.30
2017-09-26T12:28:28.568Z,13.77
2017-09-26T12:30:55.711Z,13.50
2017-09-26T12:33:22.158Z,13.30
2017-09-26T12:35:49.291Z,14.40
2017-09-26T12:38:15.712Z,12.90
2017-09-26T12:40:42.160Z,12.53
2017-09-26T12:43:08.579Z,12.67
2017-09-26T12:45:34.975Z,14.50
2017-09-26T12:48:01.441Z,11.80
2017-09-26T12:50:28.603Z,12.93
2017-09-26T12:52:55.026Z,11.57
2017-09-26T12:55:21.430Z,12.77
2017-09-26T12:57:47.859Z,10.70
2017-09-26T13:00:14.266Z,13.67
2017-09-26T13:02:40.668Z,14.30
2017-09-26T13:05:07.204Z,16.80
2017-09-26T13:07:33.591Z,14.50
2017-09-26T13:10:00.024Z,15.63
2017-09-26T13:12:26.451Z,13.57
2017-09-26T13:14:52.839Z,14.73
2017-09-26T13:17:19.221Z,15.73
2017-09-26T13:19:45.689Z,14.03
2017-09-26T13:22:12.068Z,15.67
2017-09-26T13:24:38.482Z,17.17
2017-09-26T13:27:05.771Z,18.50
2017-09-26T13:29:32.174Z,16.77
2017-09-26T13:31:59.340Z,16.90
2017-09-26T13:34:25.772Z,17.10
2017-09-26T13:36:52.162Z,17.70
2017-09-26T13:39:18.615Z,17.33
2017-09-26T13:41:45.783Z,15.93
2017-09-26T13:44:13.656Z,14.87
2017-09-26T13:46:40.414Z,13.93
2017-09-26T13:49:06.824Z,16.33
2017-09-26T13:51:33.240Z,14.10
2017-09-26T13:54:00.403Z,16.03
2017-09-26T13:56:27.542Z,15.07
2017-09-26T13:58:54.704Z,15.33
2017-09-26T14:01:21.147Z,16.97
2017-09-26T14:03:47.800Z,17.00
2017-09-26T14:06:14.216Z,14.80
2017-09-26T14:08:40.618Z,16.60
2017-09-26T14:11:07.011Z,16.70
2017-09-26T14:13:33.457Z,18.20
2017-09-26T14:15:59.879Z,16.40
2017-09-26T14:18:26.275Z,18.60
2017-09-26T14:20:52.747Z,17.50
2017-09-26T14:23:19.960Z,15.63
2017-09-26T14:25:46.487Z,14.57
2017-09-26T14:28:13.631Z,15.80
2017-09-26T14:30:40.795Z,16.57
2017-09-26T14:33:07.320Z,17.60
2017-09-26T14:35:34.471Z,17.17
2017-09-26T14:38:01.600Z,16.93
2017-09-26T14:40:28.059Z,23.17
2017-09-26T14:42:54.455Z,17.27
2017-09-26T14:45:20.851Z,16.40
2017-09-26T14:47:47.394Z,16.37
2017-09-26T14:50:13.848Z,16.47
2017-09-26T14:52:40.991Z,14.07
2017-09-26T14:55:08.173Z,15.57
2017-09-26T14:57:34.602Z,15.10
2017-09-26T15:00:00.944Z,15.93
2017-09-26T15:02:28.088Z,15.20
2017-09-26T15:04:55.239Z,14.17
2017-09-26T15:07:22.400Z,16.60
2017-09-26T15:09:49.679Z,15.93
2017-09-26T15:12:16.100Z,15.40
2017-09-26T15:14:42.484Z,14.80
2017-09-26T15:17:08.907Z,15.40
2017-09-26T15:19:35.308Z,14.30
2017-09-26T15:22:01.777Z,14.27
2017-09-26T15:24:28.315Z,14.37
2017-09-26T15:26:54.699Z,15.60
2017-09-26T15:29:21.288Z,12.80
2017-09-26T15:31:47.756Z,15.83
2017-09-26T15:34:14.896Z,13.20
2017-09-26T15:36:48.975Z,14.40
2017-09-26T15:39:16.152Z,15.37
2017-09-26T15:41:42.579Z,13.60
2017-09-26T15:44:08.984Z,14.63
2017-09-26T15:46:35.419Z,14.50
2017-09-26T15:49:01.855Z,14.00
2017-09-26T15:51:28.263Z,13.80
2017-09-26T15:53:54.650Z,13.03
2017-09-26T15:56:21.087Z,15.03
2017-09-26T15:58:48.395Z,11.63
2017-09-26T16:01:14.807Z,14.50
2017-09-26T16:03:41.212Z,14.63
2017-09-26T16:06:08.371Z,13.57
2017-09-26T16:08:34.809Z,13.83
2017-09-26T16:11:01.228Z,13.40
2017-09-26T16:13:28.370Z,12.53
2017-09-26T16:15:55.528Z,12.00
2017-09-26T16:18:22.712Z,13.20
2017-09-26T16:20:49.160Z,13.60
2017-09-26T16:23:15.559Z,12.90
2017-09-26T16:25:41.969Z,12.90
2017-09-26T16:28:09.156Z,12.53
2017-09-26T16:30:35.711Z,11.50
2017-09-26T16:33:02.091Z,11.90
2017-09-26T16:35:29.240Z,13.20
2017-09-26T16:37:56.412Z,12.33
2017-09-26T16:40:22.828Z,13.07
2017-09-26T16:42:49.988Z,13.93
2017-09-26T16:45:17.167Z,14.30
2017-09-26T16:47:43.591Z,13.07
2017-09-26T16:50:09.998Z,12.80
2017-09-26T16:52:37.143Z,12.60
2017-09-26T16:55:04.301Z,13.13
2017-09-26T16:57:31.535Z,14.23
2017-09-26T16:59:57.972Z,14.03
2017-09-26T17:02:26.559Z,12.90
2017-09-26T17:04:53.000Z,13.40
2017-09-26T17:07:20.142Z,13.90
2017-09-26T17:09:47.295Z,14.17
2017-09-26T17:12:14.491Z,14.77
2017-09-26T17:14:40.904Z,14.33
2017-09-26T17:17:07.303Z,17.60
2017-09-26T17:19:34.466Z,17.43
2017-09-26T17:22:01.700Z,16.93
2017-09-26T17:24:28.298Z,19.30
2017-09-26T17:26:54.705Z,17.73
2017-09-26T17:29:21.152Z,17.60
2017-09-26T17:31:47.663Z,17.00
2017-09-26T17:34:14.128Z,15.70
2017-09-26T17:36:40.525Z,18.53
2017-09-26T17:39:06.951Z,15.07
2017-09-26T17:41:34.268Z,15.30
2017-09-26T17:44:01.474Z,15.40
2017-09-26T17:46:27.859Z,15.07
2017-09-26T17:48:54.297Z,15.17
2017-09-26T17:51:20.700Z,14.87
2017-09-26T17:53:47.103Z,16.63
2017-09-26T17:56:13.547Z,17.80
2017-09-26T17:58:39.931Z,17.00
2017-09-26T18:01:06.388Z,15.47
2017-09-26T18:03:33.569Z,17.23
2017-09-26T18:06:00.067Z,16.37
2017-09-26T18:08:27.327Z,16.30
2017-09-26T18:10:54.459Z,17.30
2017-09-26T18:13:21.595Z,18.03
2017-09-26T18:15:48.035Z,17.70
2017-09-26T18:18:14.431Z,16.50
2017-09-26T18:20:40.828Z,16.50
2017-09-26T18:23:07.244Z,16.50
2017-09-26T18:25:34.590Z,14.70
2017-09-26T18:28:00.998Z,16.00
2017-09-26T18:30:27.407Z,15.53
2017-09-26T18:32:53.875Z,14.87
2017-09-26T18:35:20.287Z,14.47
2017-09-26T18:37:46.755Z,13.43
2017-09-26T18:40:13.175Z,14.23
2017-09-26T18:42:39.567Z,14.70
2017-09-26T18:45:06.000Z,14.93
2017-09-26T18:47:32.423Z,12.43
2017-09-26T18:49:58.959Z,13.50
2017-09-26T18:52:25.392Z,14.10
2017-09-26T18:54:51.808Z,15.13
2017-09-26T18:57:18.248Z,15.07
2017-09-26T18:59:44.682Z,13.80
2017-09-26T19:02:11.120Z,17.97
2017-09-26T19:04:37.584Z,14.53
2017-09-26T19:07:03.972Z,15.13
2017-09-26T19:09:30.387Z,14.67
2017-09-26T19:11:56.831Z,16.17
2017-09-26T19:14:24.000Z,16.13
2017-09-26T19:16:50.432Z,14.80
2017-09-26T19:19:16.848Z,12.80
2017-09-26T19:21:43.991Z,13.63
2017-09-26T19:24:11.276Z,13.47
2017-09-26T19:26:37.679Z,12.13
2017-09-26T19:29:04.844Z,13.47
2017-09-26T19:31:31.398Z,13.90
2017-09-26T19:33:57.873Z,13.77
2017-09-26T19:36:24.278Z,12.63
2017-09-26T19:38:50.711Z,13.90
2017-09-26T19:41:18.151Z,14.07
2017-09-26T19:43:44.551Z,14.93
2017-09-26T19:46:11.739Z,14.13
2017-09-26T19:48:38.172Z,13.60
2017-09-26T19:51:04.616Z,12.63
2017-09-26T19:53:31.044Z,13.17
2017-09-26T19:55:57.431Z,15.03
2017-09-26T19:58:24.588Z,13.43
2017-09-26T20:00:51.719Z,13.03
2017-09-26T20:03:18.167Z,15.13
2017-09-26T20:05:45.318Z,13.30
2017-09-26T20:08:12.592Z,13.70
2017-09-26T20:10:38.999Z,13.97
2017-09-26T20:13:05.443Z,12.73
2017-09-26T20:15:32.639Z,12.60
2017-09-26T20:17:59.040Z,12.87
2017-09-26T20:20:25.447Z,12.60
2017-09-26T20:22:52.642Z,13.50
2017-09-26T20:25:19.028Z,14.60
2017-09-26T20:27:45.403Z,13.77
2017-09-26T20:30:11.831Z,13.40
2017-09-26T20:32:38.376Z,14.03
2017-09-26T20:35:04.980Z,14.03
2017-09-26T20:37:31.384Z,12.87
2017-09-26T20:39:57.791Z,12.90
2017-09-26T20:42:24.211Z,11.33
2017-09-26T20:44:50.604Z,12.97
2017-09-26T20:47:17.755Z,13.57
2017-09-26T20:49:44.891Z,12.93
2017-09-26T20:52:12.041Z,12.93
2017-09-26T20:54:38.579Z,11.57
2017-09-26T20:57:05.793Z,12.60
2017-09-26T20:59:32.207Z,12.20
2017-09-26T21:01:58.601Z,12.33
2017-09-26T21:04:25.795Z,13.37
2017-09-26T21:06:52.184Z,12.13
2017-09-26T21:09:19.394Z,14.20
2017-09-26T21:11:45.785Z,14.50
2017-09-26T21:14:12.193Z,14.13
2017-09-26T21:16:39.343Z,15.07
2017-09-26T21:19:05.749Z,13.93
2017-09-26T21:21:32.128Z,15.00
2017-09-26T21:23:58.556Z,13.10
2017-09-26T21:26:25.754Z,12.33
2017-09-26T21:28:52.149Z,13.37
2017-09-26T21:31:18.783Z,13.20
2017-09-26T21:33:45.191Z,14.90
2017-09-26T21:36:12.356Z,13.77
2017-09-26T21:38:39.624Z,14.80
2017-09-26T21:41:06.022Z,15.93
2017-09-26T21:43:32.412Z,15.67
2017-09-26T21:45:58.832Z,15.13
2017-09-26T21:48:25.227Z,15.50
2017-09-26T21:50:52.419Z,16.20
2017-09-26T21:53:18.849Z,13.73
2017-09-26T21:55:45.276Z,15.43
2017-09-26T21:58:11.691Z,15.43
2017-09-26T22:00:38.867Z,13.93
2017-09-26T22:03:05.310Z,13.13
2017-09-26T22:05:31.823Z,14.43
2017-09-26T22:07:58.202Z,14.17
2017-09-26T22:10:24.627Z,15.13
2017-09-26T22:12:51.056Z,15.20
2017-09-26T22:15:17.483Z,14.87
2017-09-26T22:17:43.915Z,13.50
2017-09-26T22:20:11.092Z,14.07
2017-09-26T22:22:37.490Z,13.77
2017-09-26T22:25:04.196Z,13.20
2017-09-26T22:27:31.332Z,14.10
2017-09-26T22:29:58.519Z,14.03
2017-09-26T22:32:24.972Z,12.47
2017-09-26T22:34:51.379Z,13.60
2017-09-26T22:37:18.007Z,12.90
2017-09-26T22:39:44.428Z,13.37
2017-09-26T22:42:11.575Z,12.40
2017-09-26T22:44:39.671Z,12.27
2017-09-26T22:47:06.126Z,12.70
2017-09-26T22:49:32.535Z,14.50
2017-09-26T22:51:58.947Z,12.90
2017-09-26T22:54:26.123Z,12.13
2017-09-26T22:56:52.548Z,13.20
2017-09-26T22:59:19.029Z,12.63
2017-09-26T23:01:46.204Z,12.53
2017-09-26T23:04:13.379Z,12.83
2017-09-26T23:06:39.811Z,12.57
2017-09-26T23:09:06.237Z,13.30
2017-09-26T23:11:32.647Z,12.50
2017-09-26T23:13:59.071Z,11.90
2017-09-26T23:16:25.470Z,11.53
2017-09-26T23:18:52.027Z,11.73
2017-09-26T23:21:18.423Z,14.10
2017-09-26T23:23:44.807Z,12.33
2017-09-26T23:26:11.220Z,12.43
2017-09-26T23:28:37.636Z,12.60
2017-09-26T23:31:04.072Z,13.57
2017-09-26T23:33:30.483Z,12.53
2017-09-26T23:35:57.040Z,12.00
2017-09-26T23:38:23.449Z,11.90
2017-09-26T23:40:49.883Z,12.87
2017-09-26T23:43:16.411Z,11.40
2017-09-26T23:45:42.808Z,11.87
2017-09-26T23:48:09.205Z,12.83
2017-09-26T23:50:35.620Z,11.70
2017-09-26T23:53:02.021Z,13.00
2017-09-26T23:55:29.162Z,13.00
2017-09-26T23:57:56.324Z,11.97
